ソチ の空港の天気 - METARとTAF

ソチ空港 ( URSS / AER ) - ロシア ソチ
飛行場実況気象(Metar)
観測時間02/28 03:30 MSK (02/28 00:30 UTC)
風向・風速静穏 0m/s
視程10km以上
天気現象
全天の4割程度の雲 雲底高度 1830m
気温5℃
湿度75%
気圧1020hPa
METARURSS 280030Z 00000MPS 9999 SCT060 05/01 Q1020 R06/090070 R02/090070 NOSIG RMK R02/05004MPS QFE764
過去の天気等 Google飛行場航空写真 Wunderground天気予報

過去48時間のMETAR

飛行場予報(TAF)
発表時間: 2/28 01:57 MSK (2/27 22:57 UTC)
予報対象時間: 28日3時 MSK ~ 1日3時 MSK
風向・風速北東 8m/s 瞬間風速 13m/s
視程10km以上
なし
28日12時 MSK ~ 28日13時 MSK に徐々に
風向・風速西 5m/s 瞬間風速 10m/s
28日19時 MSK ~ 28日21時 MSK に徐々に
風向・風速北東 6m/s
TAF URSS 272257Z 2800/2824 04008G13MPS 9999 NSC
BECMG 2809/2810 28005G10MPS
BECMG 2816/2818 05006MPS